sensor_id;sensor_type;location;lat;lon;timestamp;P1;durP1;ratioP1;P2;durP2;ratioP2
47804;SDS011;33568;45.286;9.900;2024-03-25T00:00:13;10.35;;;6.47;;
47804;SDS011;33568;45.286;9.900;2024-03-25T00:02:40;11.43;;;7.20;;
47804;SDS011;33568;45.286;9.900;2024-03-25T00:05:07;12.20;;;6.65;;
47804;SDS011;33568;45.286;9.900;2024-03-25T00:07:40;10.57;;;7.13;;
47804;SDS011;33568;45.286;9.900;2024-03-25T00:10:07;22.10;;;7.57;;
47804;SDS011;33568;45.286;9.900;2024-03-25T00:12:34;15.32;;;7.85;;
47804;SDS011;33568;45.286;9.900;2024-03-25T00:15:01;12.75;;;7.75;;
47804;SDS011;33568;45.286;9.900;2024-03-25T00:17:29;11.60;;;7.15;;
47804;SDS011;33568;45.286;9.900;2024-03-25T00:22:22;13.57;;;6.78;;
47804;SDS011;33568;45.286;9.900;2024-03-25T00:24:50;9.85;;;6.63;;
47804;SDS011;33568;45.286;9.900;2024-03-25T00:27:18;14.98;;;7.28;;
47804;SDS011;33568;45.286;9.900;2024-03-25T00:29:44;14.30;;;6.68;;
47804;SDS011;33568;45.286;9.900;2024-03-25T00:32:11;14.02;;;6.40;;
47804;SDS011;33568;45.286;9.900;2024-03-25T00:37:04;11.65;;;5.70;;
47804;SDS011;33568;45.286;9.900;2024-03-25T00:39:30;8.55;;;6.60;;
47804;SDS011;33568;45.286;9.900;2024-03-25T00:42:00;11.00;;;6.60;;
47804;SDS011;33568;45.286;9.900;2024-03-25T00:44:27;14.10;;;6.50;;
47804;SDS011;33568;45.286;9.900;2024-03-25T00:46:53;9.45;;;6.35;;
47804;SDS011;33568;45.286;9.900;2024-03-25T00:51:47;11.60;;;6.03;;
47804;SDS011;33568;45.286;9.900;2024-03-25T00:54:14;11.05;;;6.20;;
47804;SDS011;33568;45.286;9.900;2024-03-25T00:56:40;16.83;;;6.43;;
47804;SDS011;33568;45.286;9.900;2024-03-25T00:59:06;9.65;;;6.25;;
47804;SDS011;33568;45.286;9.900;2024-03-25T01:01:33;8.63;;;6.43;;
47804;SDS011;33568;45.286;9.900;2024-03-25T01:04:01;16.08;;;7.05;;
47804;SDS011;33568;45.286;9.900;2024-03-25T01:06:28;10.32;;;6.53;;
47804;SDS011;33568;45.286;9.900;2024-03-25T01:08:55;12.85;;;6.53;;
47804;SDS011;33568;45.286;9.900;2024-03-25T01:13:48;13.05;;;6.95;;
47804;SDS011;33568;45.286;9.900;2024-03-25T01:16:15;12.55;;;6.93;;
47804;SDS011;33568;45.286;9.900;2024-03-25T01:18:42;9.35;;;6.85;;
47804;SDS011;33568;45.286;9.900;2024-03-25T01:21:08;10.93;;;6.88;;
47804;SDS011;33568;45.286;9.900;2024-03-25T01:23:35;13.02;;;6.75;;
47804;SDS011;33568;45.286;9.900;2024-03-25T01:26:01;16.88;;;6.63;;
47804;SDS011;33568;45.286;9.900;2024-03-25T01:30:54;13.93;;;7.25;;
47804;SDS011;33568;45.286;9.900;2024-03-25T01:33:21;16.73;;;8.10;;
47804;SDS011;33568;45.286;9.900;2024-03-25T01:38:13;11.60;;;6.80;;
47804;SDS011;33568;45.286;9.900;2024-03-25T01:40:40;12.23;;;7.07;;
47804;SDS011;33568;45.286;9.900;2024-03-25T01:43:07;12.15;;;8.07;;
47804;SDS011;33568;45.286;9.900;2024-03-25T01:45:34;13.80;;;8.20;;
47804;SDS011;33568;45.286;9.900;2024-03-25T01:48:02;13.55;;;7.72;;
47804;SDS011;33568;45.286;9.900;2024-03-25T01:50:36;11.20;;;6.07;;
47804;SDS011;33568;45.286;9.900;2024-03-25T01:53:08;13.52;;;6.95;;
47804;SDS011;33568;45.286;9.900;2024-03-25T01:55:36;9.68;;;6.28;;
47804;SDS011;33568;45.286;9.900;2024-03-25T01:58:09;9.10;;;6.45;;
47804;SDS011;33568;45.286;9.900;2024-03-25T02:00:35;12.82;;;7.13;;
47804;SDS011;33568;45.286;9.900;2024-03-25T02:03:03;11.90;;;6.55;;
47804;SDS011;33568;45.286;9.900;2024-03-25T02:05:32;8.95;;;6.32;;
47804;SDS011;33568;45.286;9.900;2024-03-25T02:08:01;10.95;;;6.80;;
47804;SDS011;33568;45.286;9.900;2024-03-25T02:10:29;14.68;;;7.00;;
47804;SDS011;33568;45.286;9.900;2024-03-25T02:12:57;8.77;;;6.75;;
47804;SDS011;33568;45.286;9.900;2024-03-25T02:15:24;9.48;;;7.45;;
47804;SDS011;33568;45.286;9.900;2024-03-25T02:17:52;9.13;;;7.22;;
47804;SDS011;33568;45.286;9.900;2024-03-25T02:20:18;14.35;;;7.03;;
47804;SDS011;33568;45.286;9.900;2024-03-25T02:22:45;10.23;;;6.63;;
47804;SDS011;33568;45.286;9.900;2024-03-25T02:25:11;12.43;;;6.88;;
47804;SDS011;33568;45.286;9.900;2024-03-25T02:27:42;13.82;;;6.93;;
47804;SDS011;33568;45.286;9.900;2024-03-25T02:30:09;11.50;;;6.13;;
47804;SDS011;33568;45.286;9.900;2024-03-25T02:32:38;12.45;;;6.90;;
47804;SDS011;33568;45.286;9.900;2024-03-25T02:35:09;17.55;;;10.45;;
47804;SDS011;33568;45.286;9.900;2024-03-25T02:37:39;16.27;;;10.57;;
47804;SDS011;33568;45.286;9.900;2024-03-25T02:40:07;19.25;;;10.60;;
47804;SDS011;33568;45.286;9.900;2024-03-25T02:42:35;15.57;;;8.82;;
47804;SDS011;33568;45.286;9.900;2024-03-25T02:45:02;13.57;;;8.85;;
47804;SDS011;33568;45.286;9.900;2024-03-25T02:47:30;20.02;;;7.55;;
47804;SDS011;33568;45.286;9.900;2024-03-25T02:49:57;13.55;;;6.93;;
47804;SDS011;33568;45.286;9.900;2024-03-25T02:52:23;10.57;;;6.50;;
47804;SDS011;33568;45.286;9.900;2024-03-25T02:54:50;9.77;;;6.45;;
47804;SDS011;33568;45.286;9.900;2024-03-25T02:57:17;9.13;;;6.15;;
47804;SDS011;33568;45.286;9.900;2024-03-25T03:02:10;13.27;;;6.35;;
47804;SDS011;33568;45.286;9.900;2024-03-25T03:04:36;16.02;;;9.30;;
47804;SDS011;33568;45.286;9.900;2024-03-25T03:09:30;33.45;;;16.27;;
47804;SDS011;33568;45.286;9.900;2024-03-25T03:11:56;56.78;;;26.90;;
47804;SDS011;33568;45.286;9.900;2024-03-25T03:14:23;30.25;;;14.52;;
47804;SDS011;33568;45.286;9.900;2024-03-25T03:16:49;13.35;;;7.50;;
47804;SDS011;33568;45.286;9.900;2024-03-25T03:19:20;9.77;;;6.30;;
47804;SDS011;33568;45.286;9.900;2024-03-25T03:21:47;10.63;;;6.45;;
47804;SDS011;33568;45.286;9.900;2024-03-25T03:24:13;12.30;;;7.25;;
47804;SDS011;33568;45.286;9.900;2024-03-25T03:29:06;11.45;;;6.20;;
47804;SDS011;33568;45.286;9.900;2024-03-25T03:31:32;8.70;;;7.00;;
47804;SDS011;33568;45.286;9.900;2024-03-25T03:33:59;14.98;;;6.60;;
47804;SDS011;33568;45.286;9.900;2024-03-25T03:36:25;14.75;;;7.07;;
47804;SDS011;33568;45.286;9.900;2024-03-25T03:38:51;14.85;;;8.93;;
47804;SDS011;33568;45.286;9.900;2024-03-25T03:41:18;24.38;;;8.98;;
47804;SDS011;33568;45.286;9.900;2024-03-25T03:46:10;13.27;;;6.78;;
47804;SDS011;33568;45.286;9.900;2024-03-25T03:48:37;12.23;;;7.93;;
47804;SDS011;33568;45.286;9.900;2024-03-25T03:51:04;9.60;;;6.80;;
47804;SDS011;33568;45.286;9.900;2024-03-25T03:53:32;12.73;;;6.53;;
47804;SDS011;33568;45.286;9.900;2024-03-25T03:56:00;15.20;;;6.93;;
47804;SDS011;33568;45.286;9.900;2024-03-25T03:58:28;9.05;;;6.82;;
47804;SDS011;33568;45.286;9.900;2024-03-25T04:00:55;13.85;;;7.25;;
47804;SDS011;33568;45.286;9.900;2024-03-25T04:03:22;9.90;;;7.53;;
47804;SDS011;33568;45.286;9.900;2024-03-25T04:05:48;9.88;;;5.88;;
47804;SDS011;33568;45.286;9.900;2024-03-25T04:08:15;10.68;;;7.55;;
47804;SDS011;33568;45.286;9.900;2024-03-25T04:13:08;13.98;;;7.25;;
47804;SDS011;33568;45.286;9.900;2024-03-25T04:18:02;11.00;;;6.93;;
47804;SDS011;33568;45.286;9.900;2024-03-25T04:20:29;12.63;;;6.85;;
47804;SDS011;33568;45.286;9.900;2024-03-25T04:23:02;8.25;;;7.10;;
47804;SDS011;33568;45.286;9.900;2024-03-25T04:27:55;10.55;;;6.60;;
47804;SDS011;33568;45.286;9.900;2024-03-25T04:30:21;12.73;;;6.88;;
47804;SDS011;33568;45.286;9.900;2024-03-25T04:35:13;11.13;;;6.88;;
47804;SDS011;33568;45.286;9.900;2024-03-25T04:37:40;10.73;;;7.13;;
47804;SDS011;33568;45.286;9.900;2024-03-25T04:40:07;12.18;;;7.15;;
47804;SDS011;33568;45.286;9.900;2024-03-25T04:42:34;11.82;;;6.65;;
47804;SDS011;33568;45.286;9.900;2024-03-25T04:47:27;15.02;;;7.22;;
47804;SDS011;33568;45.286;9.900;2024-03-25T04:49:53;9.68;;;6.97;;
47804;SDS011;33568;45.286;9.900;2024-03-25T04:52:19;13.27;;;7.70;;
47804;SDS011;33568;45.286;9.900;2024-03-25T04:54:49;10.13;;;7.53;;
47804;SDS011;33568;45.286;9.900;2024-03-25T04:57:15;12.40;;;7.25;;
47804;SDS011;33568;45.286;9.900;2024-03-25T04:59:42;11.13;;;7.40;;
47804;SDS011;33568;45.286;9.900;2024-03-25T05:02:08;13.15;;;6.82;;
47804;SDS011;33568;45.286;9.900;2024-03-25T05:04:34;11.10;;;7.30;;
47804;SDS011;33568;45.286;9.900;2024-03-25T05:07:01;9.05;;;7.35;;
47804;SDS011;33568;45.286;9.900;2024-03-25T05:09:27;15.55;;;8.75;;
47804;SDS011;33568;45.286;9.900;2024-03-25T05:11:53;16.02;;;10.38;;
47804;SDS011;33568;45.286;9.900;2024-03-25T05:14:20;18.40;;;9.88;;
47804;SDS011;33568;45.286;9.900;2024-03-25T05:16:46;16.13;;;8.57;;
47804;SDS011;33568;45.286;9.900;2024-03-25T05:19:13;14.50;;;7.95;;
47804;SDS011;33568;45.286;9.900;2024-03-25T05:21:39;15.57;;;7.70;;
47804;SDS011;33568;45.286;9.900;2024-03-25T05:24:06;16.05;;;8.82;;
47804;SDS011;33568;45.286;9.900;2024-03-25T05:28:59;17.15;;;7.32;;
47804;SDS011;33568;45.286;9.900;2024-03-25T05:31:25;16.00;;;7.65;;
47804;SDS011;33568;45.286;9.900;2024-03-25T05:33:52;13.18;;;8.02;;
47804;SDS011;33568;45.286;9.900;2024-03-25T05:36:18;13.35;;;7.90;;
47804;SDS011;33568;45.286;9.900;2024-03-25T05:38:44;10.82;;;8.10;;
47804;SDS011;33568;45.286;9.900;2024-03-25T05:41:11;10.02;;;7.18;;
47804;SDS011;33568;45.286;9.900;2024-03-25T05:43:38;13.40;;;7.47;;
47804;SDS011;33568;45.286;9.900;2024-03-25T05:48:30;18.02;;;8.55;;
47804;SDS011;33568;45.286;9.900;2024-03-25T05:53:27;12.77;;;7.70;;
47804;SDS011;33568;45.286;9.900;2024-03-25T05:55:55;14.30;;;7.95;;
47804;SDS011;33568;45.286;9.900;2024-03-25T05:58:21;12.68;;;8.00;;
47804;SDS011;33568;45.286;9.900;2024-03-25T06:00:48;13.07;;;8.05;;
47804;SDS011;33568;45.286;9.900;2024-03-25T06:03:16;16.77;;;7.63;;
47804;SDS011;33568;45.286;9.900;2024-03-25T06:05:43;13.65;;;6.93;;
47804;SDS011;33568;45.286;9.900;2024-03-25T06:08:10;14.27;;;7.57;;
47804;SDS011;33568;45.286;9.900;2024-03-25T06:10:46;14.40;;;7.53;;
47804;SDS011;33568;45.286;9.900;2024-03-25T06:13:12;16.67;;;8.45;;
47804;SDS011;33568;45.286;9.900;2024-03-25T06:18:05;10.10;;;7.25;;
47804;SDS011;33568;45.286;9.900;2024-03-25T06:20:32;14.85;;;7.68;;
47804;SDS011;33568;45.286;9.900;2024-03-25T06:22:58;12.63;;;7.80;;
47804;SDS011;33568;45.286;9.900;2024-03-25T06:27:56;13.07;;;7.90;;
47804;SDS011;33568;45.286;9.900;2024-03-25T06:30:23;10.85;;;7.68;;
47804;SDS011;33568;45.286;9.900;2024-03-25T06:33:08;13.27;;;7.90;;
47804;SDS011;33568;45.286;9.900;2024-03-25T06:35:53;15.15;;;8.02;;
47804;SDS011;33568;45.286;9.900;2024-03-25T06:38:20;25.45;;;8.25;;
47804;SDS011;33568;45.286;9.900;2024-03-25T06:40:47;22.58;;;7.78;;
47804;SDS011;33568;45.286;9.900;2024-03-25T06:45:41;11.15;;;7.40;;
47804;SDS011;33568;45.286;9.900;2024-03-25T06:48:08;9.25;;;7.05;;
47804;SDS011;33568;45.286;9.900;2024-03-25T06:50:34;9.70;;;7.05;;
47804;SDS011;33568;45.286;9.900;2024-03-25T06:53:02;12.95;;;7.50;;
47804;SDS011;33568;45.286;9.900;2024-03-25T06:57:55;16.30;;;7.68;;
47804;SDS011;33568;45.286;9.900;2024-03-25T07:00:21;23.20;;;8.35;;
47804;SDS011;33568;45.286;9.900;2024-03-25T07:02:48;19.20;;;7.65;;
47804;SDS011;33568;45.286;9.900;2024-03-25T07:05:15;22.13;;;7.53;;
47804;SDS011;33568;45.286;9.900;2024-03-25T07:10:08;20.23;;;7.80;;
47804;SDS011;33568;45.286;9.900;2024-03-25T07:15:01;23.73;;;11.40;;
47804;SDS011;33568;45.286;9.900;2024-03-25T07:17:27;31.00;;;10.10;;
47804;SDS011;33568;45.286;9.900;2024-03-25T07:19:53;14.98;;;8.25;;
47804;SDS011;33568;45.286;9.900;2024-03-25T07:22:20;13.38;;;7.45;;
47804;SDS011;33568;45.286;9.900;2024-03-25T07:24:46;7.40;;;6.20;;
47804;SDS011;33568;45.286;9.900;2024-03-25T07:27:13;15.27;;;7.97;;
47804;SDS011;33568;45.286;9.900;2024-03-25T07:32:06;19.45;;;6.32;;
47804;SDS011;33568;45.286;9.900;2024-03-25T07:34:34;16.50;;;5.70;;
47804;SDS011;33568;45.286;9.900;2024-03-25T07:37:00;13.73;;;6.07;;
47804;SDS011;33568;45.286;9.900;2024-03-25T07:41:53;18.38;;;5.57;;
47804;SDS011;33568;45.286;9.900;2024-03-25T07:44:19;15.60;;;5.82;;
47804;SDS011;33568;45.286;9.900;2024-03-25T07:46:46;14.63;;;6.68;;
47804;SDS011;33568;45.286;9.900;2024-03-25T07:49:12;20.20;;;5.70;;
47804;SDS011;33568;45.286;9.900;2024-03-25T07:51:39;10.65;;;5.10;;
47804;SDS011;33568;45.286;9.900;2024-03-25T07:54:05;7.90;;;5.00;;
47804;SDS011;33568;45.286;9.900;2024-03-25T07:56:32;8.20;;;4.70;;
47804;SDS011;33568;45.286;9.900;2024-03-25T07:59:03;11.48;;;4.60;;
47804;SDS011;33568;45.286;9.900;2024-03-25T08:01:29;14.00;;;5.38;;
47804;SDS011;33568;45.286;9.900;2024-03-25T08:06:22;8.15;;;4.07;;
47804;SDS011;33568;45.286;9.900;2024-03-25T08:08:49;13.50;;;4.75;;
47804;SDS011;33568;45.286;9.900;2024-03-25T08:11:16;12.10;;;4.80;;
47804;SDS011;33568;45.286;9.900;2024-03-25T08:13:42;5.72;;;4.60;;
47804;SDS011;33568;45.286;9.900;2024-03-25T08:16:08;8.45;;;5.88;;
47804;SDS011;33568;45.286;9.900;2024-03-25T08:21:01;15.18;;;4.45;;
47804;SDS011;33568;45.286;9.900;2024-03-25T08:23:27;8.98;;;4.38;;
47804;SDS011;33568;45.286;9.900;2024-03-25T08:25:54;11.10;;;5.20;;
47804;SDS011;33568;45.286;9.900;2024-03-25T08:28:20;16.17;;;5.82;;
47804;SDS011;33568;45.286;9.900;2024-03-25T08:33:13;6.85;;;5.05;;
47804;SDS011;33568;45.286;9.900;2024-03-25T08:35:41;7.82;;;4.82;;
47804;SDS011;33568;45.286;9.900;2024-03-25T08:40:34;7.50;;;4.80;;
47804;SDS011;33568;45.286;9.900;2024-03-25T08:43:00;11.15;;;4.93;;
47804;SDS011;33568;45.286;9.900;2024-03-25T08:45:27;11.93;;;5.20;;
47804;SDS011;33568;45.286;9.900;2024-03-25T08:47:54;6.95;;;4.68;;
47804;SDS011;33568;45.286;9.900;2024-03-25T08:50:20;11.48;;;4.95;;
47804;SDS011;33568;45.286;9.900;2024-03-25T08:52:47;7.30;;;4.70;;
47804;SDS011;33568;45.286;9.900;2024-03-25T08:57:39;14.43;;;4.43;;
47804;SDS011;33568;45.286;9.900;2024-03-25T09:00:07;10.02;;;4.50;;
47804;SDS011;33568;45.286;9.900;2024-03-25T09:02:36;10.00;;;5.25;;
47804;SDS011;33568;45.286;9.900;2024-03-25T09:05:02;11.23;;;4.70;;
47804;SDS011;33568;45.286;9.900;2024-03-25T09:07:33;7.22;;;4.57;;
47804;SDS011;33568;45.286;9.900;2024-03-25T09:12:45;11.75;;;4.57;;
47804;SDS011;33568;45.286;9.900;2024-03-25T09:17:38;11.40;;;4.45;;
47804;SDS011;33568;45.286;9.900;2024-03-25T09:20:04;7.53;;;4.88;;
47804;SDS011;33568;45.286;9.900;2024-03-25T09:22:52;10.48;;;4.25;;
47804;SDS011;33568;45.286;9.900;2024-03-25T09:27:48;10.18;;;4.18;;
47804;SDS011;33568;45.286;9.900;2024-03-25T09:30:15;12.32;;;4.32;;
47804;SDS011;33568;45.286;9.900;2024-03-25T09:32:44;9.38;;;4.43;;
47804;SDS011;33568;45.286;9.900;2024-03-25T09:35:10;6.47;;;4.30;;
47804;SDS011;33568;45.286;9.900;2024-03-25T09:37:37;11.52;;;4.35;;
47804;SDS011;33568;45.286;9.900;2024-03-25T09:40:04;7.95;;;3.67;;
47804;SDS011;33568;45.286;9.900;2024-03-25T09:42:36;7.50;;;4.20;;
47804;SDS011;33568;45.286;9.900;2024-03-25T09:45:12;8.90;;;4.88;;
47804;SDS011;33568;45.286;9.900;2024-03-25T09:47:45;9.90;;;4.10;;
47804;SDS011;33568;45.286;9.900;2024-03-25T09:50:14;14.85;;;5.30;;
47804;SDS011;33568;45.286;9.900;2024-03-25T09:52:45;11.55;;;3.92;;
47804;SDS011;33568;45.286;9.900;2024-03-25T09:55:12;7.32;;;4.22;;
47804;SDS011;33568;45.286;9.900;2024-03-25T09:57:39;3.60;;;3.30;;
47804;SDS011;33568;45.286;9.900;2024-03-25T10:00:08;6.15;;;3.65;;
47804;SDS011;33568;45.286;9.900;2024-03-25T10:02:40;8.73;;;3.47;;
47804;SDS011;33568;45.286;9.900;2024-03-25T10:05:07;11.45;;;3.63;;
47804;SDS011;33568;45.286;9.900;2024-03-25T10:07:34;10.27;;;3.78;;
47804;SDS011;33568;45.286;9.900;2024-03-25T10:10:04;6.45;;;3.83;;
47804;SDS011;33568;45.286;9.900;2024-03-25T10:12:32;6.25;;;3.47;;
47804;SDS011;33568;45.286;9.900;2024-03-25T10:14:59;4.53;;;3.58;;
47804;SDS011;33568;45.286;9.900;2024-03-25T10:17:25;6.28;;;3.95;;
47804;SDS011;33568;45.286;9.900;2024-03-25T10:22:21;6.13;;;3.53;;
47804;SDS011;33568;45.286;9.900;2024-03-25T10:24:47;5.13;;;3.67;;
47804;SDS011;33568;45.286;9.900;2024-03-25T10:27:21;9.68;;;4.38;;
47804;SDS011;33568;45.286;9.900;2024-03-25T10:29:51;7.07;;;4.63;;
47804;SDS011;33568;45.286;9.900;2024-03-25T10:32:19;8.18;;;4.15;;
47804;SDS011;33568;45.286;9.900;2024-03-25T10:34:45;9.52;;;3.70;;
47804;SDS011;33568;45.286;9.900;2024-03-25T10:37:12;5.47;;;4.18;;
47804;SDS011;33568;45.286;9.900;2024-03-25T10:39:47;6.40;;;3.30;;
47804;SDS011;33568;45.286;9.900;2024-03-25T10:42:16;7.57;;;3.60;;
47804;SDS011;33568;45.286;9.900;2024-03-25T10:44:44;8.27;;;3.78;;
47804;SDS011;33568;45.286;9.900;2024-03-25T10:47:14;9.43;;;3.83;;
47804;SDS011;33568;45.286;9.900;2024-03-25T10:49:49;7.05;;;3.30;;
47804;SDS011;33568;45.286;9.900;2024-03-25T10:52:22;5.15;;;3.10;;
47804;SDS011;33568;45.286;9.900;2024-03-25T10:54:50;7.22;;;3.42;;
47804;SDS011;33568;45.286;9.900;2024-03-25T10:57:17;8.55;;;3.42;;
47804;SDS011;33568;45.286;9.900;2024-03-25T10:59:44;5.63;;;3.20;;
47804;SDS011;33568;45.286;9.900;2024-03-25T11:02:11;6.95;;;2.80;;
47804;SDS011;33568;45.286;9.900;2024-03-25T11:04:38;14.18;;;3.47;;
47804;SDS011;33568;45.286;9.900;2024-03-25T11:07:09;4.53;;;3.20;;
47804;SDS011;33568;45.286;9.900;2024-03-25T11:09:36;9.63;;;3.05;;
47804;SDS011;33568;45.286;9.900;2024-03-25T11:12:03;9.23;;;3.30;;
47804;SDS011;33568;45.286;9.900;2024-03-25T11:14:30;6.20;;;3.10;;
47804;SDS011;33568;45.286;9.900;2024-03-25T11:17:01;13.13;;;5.68;;
47804;SDS011;33568;45.286;9.900;2024-03-25T11:19:29;9.57;;;4.60;;
47804;SDS011;33568;45.286;9.900;2024-03-25T11:22:08;4.68;;;2.50;;
47804;SDS011;33568;45.286;9.900;2024-03-25T11:24:36;7.47;;;2.88;;
47804;SDS011;33568;45.286;9.900;2024-03-25T11:27:07;11.80;;;2.45;;
47804;SDS011;33568;45.286;9.900;2024-03-25T11:29:34;9.05;;;3.20;;
47804;SDS011;33568;45.286;9.900;2024-03-25T11:32:04;3.72;;;2.58;;
47804;SDS011;33568;45.286;9.900;2024-03-25T11:34:31;12.73;;;2.63;;
47804;SDS011;33568;45.286;9.900;2024-03-25T11:36:58;2.88;;;1.85;;
47804;SDS011;33568;45.286;9.900;2024-03-25T11:39:24;2.60;;;2.40;;
47804;SDS011;33568;45.286;9.900;2024-03-25T11:41:52;2.40;;;1.63;;
47804;SDS011;33568;45.286;9.900;2024-03-25T11:44:19;1.92;;;1.42;;
47804;SDS011;33568;45.286;9.900;2024-03-25T11:46:46;2.53;;;1.80;;
47804;SDS011;33568;45.286;9.900;2024-03-25T11:49:14;3.00;;;1.67;;
47804;SDS011;33568;45.286;9.900;2024-03-25T11:51:42;4.55;;;1.70;;
47804;SDS011;33568;45.286;9.900;2024-03-25T11:54:11;1.38;;;1.27;;
47804;SDS011;33568;45.286;9.900;2024-03-25T11:56:38;3.42;;;2.10;;
47804;SDS011;33568;45.286;9.900;2024-03-25T11:59:05;2.47;;;1.70;;
47804;SDS011;33568;45.286;9.900;2024-03-25T12:01:32;1.88;;;1.77;;
47804;SDS011;33568;45.286;9.900;2024-03-25T12:04:12;4.55;;;2.15;;
47804;SDS011;33568;45.286;9.900;2024-03-25T12:06:43;7.35;;;1.83;;
47804;SDS011;33568;45.286;9.900;2024-03-25T12:09:11;2.63;;;1.70;;
47804;SDS011;33568;45.286;9.900;2024-03-25T12:11:56;7.90;;;4.05;;
47804;SDS011;33568;45.286;9.900;2024-03-25T12:14:24;5.50;;;1.80;;
47804;SDS011;33568;45.286;9.900;2024-03-25T12:16:55;6.80;;;1.80;;
47804;SDS011;33568;45.286;9.900;2024-03-25T12:19:24;6.53;;;1.88;;
47804;SDS011;33568;45.286;9.900;2024-03-25T12:21:58;5.22;;;2.13;;
47804;SDS011;33568;45.286;9.900;2024-03-25T12:24:26;6.53;;;1.92;;
47804;SDS011;33568;45.286;9.900;2024-03-25T12:26:52;1.95;;;1.65;;
47804;SDS011;33568;45.286;9.900;2024-03-25T12:29:19;8.13;;;4.00;;
47804;SDS011;33568;45.286;9.900;2024-03-25T12:31:58;4.53;;;2.05;;
47804;SDS011;33568;45.286;9.900;2024-03-25T12:34:27;8.48;;;1.70;;
47804;SDS011;33568;45.286;9.900;2024-03-25T12:37:00;2.72;;;1.58;;
47804;SDS011;33568;45.286;9.900;2024-03-25T12:39:30;3.00;;;1.90;;
47804;SDS011;33568;45.286;9.900;2024-03-25T12:41:56;11.20;;;7.68;;
47804;SDS011;33568;45.286;9.900;2024-03-25T12:44:23;3.95;;;2.13;;
47804;SDS011;33568;45.286;9.900;2024-03-25T12:46:50;2.00;;;1.80;;
47804;SDS011;33568;45.286;9.900;2024-03-25T12:49:16;3.67;;;2.00;;
47804;SDS011;33568;45.286;9.900;2024-03-25T12:51:42;4.88;;;1.58;;
47804;SDS011;33568;45.286;9.900;2024-03-25T12:54:09;7.43;;;2.53;;
47804;SDS011;33568;45.286;9.900;2024-03-25T12:56:35;4.07;;;1.80;;
47804;SDS011;33568;45.286;9.900;2024-03-25T12:59:02;3.08;;;2.13;;
47804;SDS011;33568;45.286;9.900;2024-03-25T13:01:28;6.80;;;2.03;;
47804;SDS011;33568;45.286;9.900;2024-03-25T13:03:54;3.55;;;2.17;;
47804;SDS011;33568;45.286;9.900;2024-03-25T13:06:21;3.03;;;2.08;;
47804;SDS011;33568;45.286;9.900;2024-03-25T13:08:47;6.32;;;2.45;;
47804;SDS011;33568;45.286;9.900;2024-03-25T13:11:14;5.30;;;2.33;;
47804;SDS011;33568;45.286;9.900;2024-03-25T13:13:40;5.82;;;1.88;;
47804;SDS011;33568;45.286;9.900;2024-03-25T13:16:06;2.67;;;1.83;;
47804;SDS011;33568;45.286;9.900;2024-03-25T13:18:33;5.38;;;2.13;;
47804;SDS011;33568;45.286;9.900;2024-03-25T13:20:59;4.97;;;1.85;;
47804;SDS011;33568;45.286;9.900;2024-03-25T13:23:26;5.75;;;1.70;;
47804;SDS011;33568;45.286;9.900;2024-03-25T13:25:52;2.88;;;1.70;;
47804;SDS011;33568;45.286;9.900;2024-03-25T13:28:18;3.83;;;1.88;;
47804;SDS011;33568;45.286;9.900;2024-03-25T13:30:45;1.80;;;1.70;;
47804;SDS011;33568;45.286;9.900;2024-03-25T13:33:11;7.18;;;3.13;;
47804;SDS011;33568;45.286;9.900;2024-03-25T13:35:38;5.57;;;2.28;;
47804;SDS011;33568;45.286;9.900;2024-03-25T13:38:04;6.78;;;2.42;;
47804;SDS011;33568;45.286;9.900;2024-03-25T13:40:31;5.63;;;2.28;;
47804;SDS011;33568;45.286;9.900;2024-03-25T13:42:57;4.18;;;2.53;;
47804;SDS011;33568;45.286;9.900;2024-03-25T13:45:23;6.35;;;2.20;;
47804;SDS011;33568;45.286;9.900;2024-03-25T13:47:50;5.10;;;2.92;;
47804;SDS011;33568;45.286;9.900;2024-03-25T13:50:17;6.45;;;2.33;;
47804;SDS011;33568;45.286;9.900;2024-03-25T13:52:43;6.25;;;2.50;;
47804;SDS011;33568;45.286;9.900;2024-03-25T13:57:36;3.97;;;1.98;;
47804;SDS011;33568;45.286;9.900;2024-03-25T14:00:02;7.07;;;2.42;;
47804;SDS011;33568;45.286;9.900;2024-03-25T14:02:38;3.85;;;2.13;;
47804;SDS011;33568;45.286;9.900;2024-03-25T14:05:05;5.47;;;2.13;;
47804;SDS011;33568;45.286;9.900;2024-03-25T14:07:31;4.72;;;2.35;;
47804;SDS011;33568;45.286;9.900;2024-03-25T14:09:58;2.88;;;2.13;;
47804;SDS011;33568;45.286;9.900;2024-03-25T14:12:25;5.60;;;2.35;;
47804;SDS011;33568;45.286;9.900;2024-03-25T14:14:51;4.90;;;1.95;;
47804;SDS011;33568;45.286;9.900;2024-03-25T14:17:18;1.92;;;1.70;;
47804;SDS011;33568;45.286;9.900;2024-03-25T14:19:44;8.73;;;2.45;;
47804;SDS011;33568;45.286;9.900;2024-03-25T14:22:11;12.07;;;2.60;;
47804;SDS011;33568;45.286;9.900;2024-03-25T14:24:37;5.13;;;3.00;;
47804;SDS011;33568;45.286;9.900;2024-03-25T14:27:04;10.65;;;2.53;;
47804;SDS011;33568;45.286;9.900;2024-03-25T14:29:31;4.43;;;2.20;;
47804;SDS011;33568;45.286;9.900;2024-03-25T14:31:57;2.65;;;1.92;;
47804;SDS011;33568;45.286;9.900;2024-03-25T14:36:50;7.80;;;2.20;;
47804;SDS011;33568;45.286;9.900;2024-03-25T14:39:16;3.35;;;1.83;;
47804;SDS011;33568;45.286;9.900;2024-03-25T14:41:44;5.72;;;2.20;;
47804;SDS011;33568;45.286;9.900;2024-03-25T14:44:11;6.63;;;2.17;;
47804;SDS011;33568;45.286;9.900;2024-03-25T14:49:03;2.00;;;1.60;;
47804;SDS011;33568;45.286;9.900;2024-03-25T14:51:29;5.78;;;2.30;;
47804;SDS011;33568;45.286;9.900;2024-03-25T14:53:56;3.15;;;1.90;;
47804;SDS011;33568;45.286;9.900;2024-03-25T14:56:23;7.32;;;1.77;;
47804;SDS011;33568;45.286;9.900;2024-03-25T14:58:49;13.52;;;2.20;;
47804;SDS011;33568;45.286;9.900;2024-03-25T15:03:42;11.80;;;2.05;;
47804;SDS011;33568;45.286;9.900;2024-03-25T15:08:34;5.18;;;2.80;;
47804;SDS011;33568;45.286;9.900;2024-03-25T15:11:02;12.70;;;2.20;;
47804;SDS011;33568;45.286;9.900;2024-03-25T15:13:30;6.07;;;2.40;;
47804;SDS011;33568;45.286;9.900;2024-03-25T15:15:57;10.60;;;2.05;;
47804;SDS011;33568;45.286;9.900;2024-03-25T15:18:24;3.35;;;1.90;;
47804;SDS011;33568;45.286;9.900;2024-03-25T15:21:03;5.28;;;2.00;;
47804;SDS011;33568;45.286;9.900;2024-03-25T15:23:30;5.88;;;1.85;;
47804;SDS011;33568;45.286;9.900;2024-03-25T15:25:57;3.95;;;1.88;;
47804;SDS011;33568;45.286;9.900;2024-03-25T15:28:24;6.68;;;2.35;;
47804;SDS011;33568;45.286;9.900;2024-03-25T15:30:52;9.70;;;2.50;;
47804;SDS011;33568;45.286;9.900;2024-03-25T15:33:20;6.93;;;2.47;;
47804;SDS011;33568;45.286;9.900;2024-03-25T15:35:46;6.45;;;2.13;;
47804;SDS011;33568;45.286;9.900;2024-03-25T15:38:13;6.65;;;2.40;;
47804;SDS011;33568;45.286;9.900;2024-03-25T15:40:40;11.50;;;2.90;;
47804;SDS011;33568;45.286;9.900;2024-03-25T15:43:07;11.15;;;3.50;;
47804;SDS011;33568;45.286;9.900;2024-03-25T15:45:33;12.43;;;4.68;;
47804;SDS011;33568;45.286;9.900;2024-03-25T15:50:28;11.88;;;3.03;;
47804;SDS011;33568;45.286;9.900;2024-03-25T15:52:55;8.88;;;2.72;;
47804;SDS011;33568;45.286;9.900;2024-03-25T15:57:47;6.90;;;2.58;;
47804;SDS011;33568;45.286;9.900;2024-03-25T16:02:40;7.05;;;2.00;;
47804;SDS011;33568;45.286;9.900;2024-03-25T16:05:06;2.80;;;2.30;;
47804;SDS011;33568;45.286;9.900;2024-03-25T16:09:59;9.90;;;2.50;;
47804;SDS011;33568;45.286;9.900;2024-03-25T16:14:52;13.55;;;7.05;;
47804;SDS011;33568;45.286;9.900;2024-03-25T16:17:21;4.53;;;3.08;;
47804;SDS011;33568;45.286;9.900;2024-03-25T16:19:51;11.18;;;4.10;;
47804;SDS011;33568;45.286;9.900;2024-03-25T16:22:17;13.15;;;2.80;;
47804;SDS011;33568;45.286;9.900;2024-03-25T16:24:44;25.55;;;3.13;;
47804;SDS011;33568;45.286;9.900;2024-03-25T16:29:36;8.70;;;3.10;;
47804;SDS011;33568;45.286;9.900;2024-03-25T16:34:30;10.27;;;2.10;;
47804;SDS011;33568;45.286;9.900;2024-03-25T16:36:56;3.70;;;1.95;;